METAR Data
IDs: Format: Raw Decoded Include TAF

Data at: 0239 UTC 25 Jan 2020

METAR for:KSUX (Sioux City/Day Fld, IA, US)
Text:KSUX 250152Z 30010KT 7SM OVC007 M03/M03 A3006 RMK AO2 SLP193 T10281033 $
Temperature: -2.8°C ( 27°F)
Dewpoint: -3.3°C ( 26°F) [RH = 96%]
Pressure (altimeter):30.06 inches Hg (1018.0 mb) [Sea level pressure: 1019.3 mb]
Winds:from the WNW (300 degrees) at 12 MPH (10 knots; 5.1 m/s)
Visibility: 7 sm ( 11 km)
Ceiling:700 feet AGL
Clouds: overcast cloud deck at 700 feet AGL
QC Flag:SOME DATA ABOVE MAY BE INACCURATE!!!"$" is an indication the sensor requires maintenance.